No particular awareness of the weather is required.    There are no Weather-warnings


Meteo18 Weather Cam more information Meteo18 Weather Cam


Thunder radar more information blitzortung!


Rain radar more information rain snow radar


Visit our other weather sites:

Template documentation
and downloads

And another site



Weather Underground History page Text

Daily Summary for January 18, 2018 Units:  Both    English   Metric
« Previous Day
Next Day »
Daily Weekly Monthly Yearly Custom
  High: Low: Average:
Temperature: TemperatureC °F /  -17.8 °C 5.3 °F /  -14.8 °C 8.3 °F /  -13.2 °C
Dew Point: DewpointC °F /  -17.8 °C 3.5 °F /  -15.8 °C 7.3 °F /  -13.7 °C
Humidity: Humidity % 85 % 93 %
Wind Speed: WindSpeedKMH mph /  0 km/h - 19.4 mph /  31.2 km/h
Wind Gust: WindSpeedGustKMH mph /  0 km/h - -
Wind:- - WSW
Pressure: PressurehPa in /  0 hPa 1010.0 in /  34198.6 hPa -
Precipitation: 9.4 in /  238.76 mm    
Historical Graphs
 
 
Tabular Data for January 18, 2018
Time Temperature Dew Point Pressure Wind Wind Speed Wind Gust Humidity Rainfall Rate (Hourly)
TemperatureC °F /  -17.8 °C DewpointC °F /  -17.8 °C PressurehPa in /  0 hPa Calm     Humidity % HourlyPrecipMM in /  0 mm
00:01 5.3 °F /  -14.8 °C 3.5 °F /  -15.8 °C 1019.2 in /  34510.1 hPa WSW 9.7 mph /  15.6 km/h 17.7 mph /  28.5 km/h 88 % 0.0 in /  0 mm
00:07 5.4 °F /  -14.8 °C 3.6 °F /  -15.8 °C 1019.2 in /  34510.1 hPa SW 19.5 mph /  31.4 km/h 20.9 mph /  33.6 km/h 88 % 0.0 in /  0 mm
00:13 5.4 °F /  -14.8 °C 3.6 °F /  -15.8 °C 1018.8 in /  34496.6 hPa SSW 20.9 mph /  33.6 km/h 25.7 mph /  41.4 km/h 88 % 0.0 in /  0 mm
00:19 5.4 °F /  -14.8 °C 3.6 °F /  -15.8 °C 1018.8 in /  34496.6 hPa WSW 11.1 mph /  17.9 km/h 20.9 mph /  33.6 km/h 88 % 0.0 in /  0 mm
00:25 5.4 °F /  -14.8 °C 3.6 °F /  -15.8 °C 1018.5 in /  34486.4 hPa SW 13.0 mph /  20.9 km/h 29.0 mph /  46.7 km/h 88 % 0.0 in /  0 mm
00:31 5.4 °F /  -14.8 °C 3.6 °F /  -15.8 °C 1018.5 in /  34486.4 hPa SW 9.7 mph /  15.6 km/h 19.3 mph /  31.1 km/h 88 % 0.0 in /  0 mm
00:37 5.5 °F /  -14.7 °C 3.8 °F /  -15.7 °C 1018.5 in /  34486.4 hPa SW 14.3 mph /  23 km/h 25.7 mph /  41.4 km/h 89 % 0.0 in /  0 mm
00:43 5.6 °F /  -14.7 °C 3.8 °F /  -15.7 °C 1018.8 in /  34496.6 hPa WSW 11.1 mph /  17.9 km/h 14.5 mph /  23.3 km/h 88 % 0.0 in /  0 mm
00:49 5.6 °F /  -14.7 °C 3.8 °F /  -15.7 °C 1018.8 in /  34496.6 hPa SW 9.7 mph /  15.6 km/h 24.1 mph /  38.8 km/h 88 % 0.0 in /  0 mm
00:55 5.6 °F /  -14.7 °C 3.9 °F /  -15.6 °C 1018.5 in /  34486.4 hPa WSW 7.9 mph /  12.7 km/h 19.3 mph /  31.1 km/h 89 % 0.0 in /  0 mm
01:01 5.6 °F /  -14.7 °C 3.9 °F /  -15.6 °C 1018.5 in /  34486.4 hPa WSW 14.3 mph /  23 km/h 24.1 mph /  38.8 km/h 89 % 0.0 in /  0 mm
01:07 5.6 °F /  -14.7 °C 3.9 °F /  -15.6 °C 1018.2 in /  34476.3 hPa WSW 13.0 mph /  20.9 km/h 14.5 mph /  23.3 km/h 89 % 0.0 in /  0 mm
01:13 5.6 °F /  -14.7 °C 3.9 °F /  -15.6 °C 1018.2 in /  34476.3 hPa SW 3.2 mph /  5.1 km/h 14.5 mph /  23.3 km/h 89 % 0.0 in /  0 mm
01:19 5.5 °F /  -14.7 °C 3.8 °F /  -15.7 °C 1017.8 in /  34462.7 hPa SW 9.7 mph /  15.6 km/h 12.9 mph /  20.8 km/h 89 % 0.0 in /  0 mm
01:25 5.4 °F /  -14.8 °C 3.9 °F /  -15.6 °C 1017.8 in /  34462.7 hPa SW 14.3 mph /  23 km/h 17.7 mph /  28.5 km/h 90 % 0.0 in /  0 mm
01:31 5.4 °F /  -14.8 °C 3.9 °F /  -15.6 °C 1017.8 in /  34462.7 hPa SW 14.3 mph /  23 km/h 14.5 mph /  23.3 km/h 90 % 0.0 in /  0 mm
01:37 5.5 °F /  -14.7 °C 4.0 °F /  -15.6 °C 1017.8 in /  34462.7 hPa SW 13.0 mph /  20.9 km/h 19.3 mph /  31.1 km/h 90 % 0.0 in /  0 mm
01:43 5.6 °F /  -14.7 °C 4.1 °F /  -15.5 °C 1017.8 in /  34462.7 hPa SW 9.7 mph /  15.6 km/h 19.3 mph /  31.1 km/h 90 % 0.0 in /  0 mm
01:49 5.6 °F /  -14.7 °C 4.1 °F /  -15.5 °C 1017.5 in /  34452.6 hPa SW 11.1 mph /  17.9 km/h 20.9 mph /  33.6 km/h 90 % 0.0 in /  0 mm
01:55 5.6 °F /  -14.7 °C 4.1 °F /  -15.5 °C 1017.2 in /  34442.4 hPa SW 16.3 mph /  26.2 km/h 17.7 mph /  28.5 km/h 90 % 0.0 in /  0 mm
02:01 5.6 °F /  -14.7 °C 4.1 °F /  -15.5 °C 1016.8 in /  34428.8 hPa SW 16.3 mph /  26.2 km/h 22.5 mph /  36.2 km/h 90 % 0.0 in /  0 mm
02:07 5.6 °F /  -14.7 °C 4.2 °F /  -15.4 °C 1016.8 in /  34428.8 hPa SSW 16.3 mph /  26.2 km/h 25.7 mph /  41.4 km/h 91 % 0.0 in /  0 mm
02:13 5.7 °F /  -14.6 °C 4.3 °F /  -15.4 °C 1016.8 in /  34428.8 hPa SW 14.3 mph /  23 km/h 25.7 mph /  41.4 km/h 91 % 0.0 in /  0 mm
02:19 5.7 °F /  -14.6 °C 4.3 °F /  -15.4 °C 1016.8 in /  34428.8 hPa SW 19.5 mph /  31.4 km/h 24.1 mph /  38.8 km/h 91 % 0.0 in /  0 mm
02:25 5.7 °F /  -14.6 °C 4.3 °F /  -15.4 °C 1016.8 in /  34428.8 hPa SW 14.3 mph /  23 km/h 20.9 mph /  33.6 km/h 91 % 0.0 in /  0 mm
02:31 5.7 °F /  -14.6 °C 4.5 °F /  -15.3 °C 1016.8 in /  34428.8 hPa SSW 9.7 mph /  15.6 km/h 17.7 mph /  28.5 km/h 92 % 0.0 in /  0 mm
02:37 5.7 °F /  -14.6 °C 4.5 °F /  -15.3 °C 1016.5 in /  34418.7 hPa SSW 7.9 mph /  12.7 km/h 29.0 mph /  46.7 km/h 92 % 0.0 in /  0 mm
02:43 5.8 °F /  -14.6 °C 4.6 °F /  -15.2 °C 1016.5 in /  34418.7 hPa SW 9.7 mph /  15.6 km/h 25.7 mph /  41.4 km/h 92 % 0.0 in /  0 mm
02:49 5.8 °F /  -14.6 °C 4.6 °F /  -15.2 °C 1016.1 in /  34405.1 hPa SW 22.7 mph /  36.5 km/h 27.4 mph /  44.1 km/h 92 % 0.0 in /  0 mm
02:55 5.8 °F /  -14.6 °C 4.8 °F /  -15.1 °C 1016.1 in /  34405.1 hPa South 17.7 mph /  28.5 km/h 35.4 mph /  57 km/h 93 % 0.0 in /  0 mm
03:01 5.9 °F /  -14.5 °C 4.9 °F /  -15.1 °C 1016.1 in /  34405.1 hPa SW 19.5 mph /  31.4 km/h 29.0 mph /  46.7 km/h 93 % 0.0 in /  0 mm
03:07 5.9 °F /  -14.5 °C 4.9 °F /  -15.1 °C 1015.8 in /  34395 hPa SW 27.4 mph /  44.1 km/h 30.6 mph /  49.2 km/h 93 % 0.0 in /  0 mm
03:13 5.9 °F /  -14.5 °C 4.9 °F /  -15.1 °C 1015.8 in /  34395 hPa WSW 17.7 mph /  28.5 km/h 30.6 mph /  49.2 km/h 93 % 0.0 in /  0 mm
03:19 5.9 °F /  -14.5 °C 5.0 °F /  -15 °C 1015.5 in /  34384.8 hPa SW 17.7 mph /  28.5 km/h 27.4 mph /  44.1 km/h 94 % 0.0 in /  0 mm
03:25 5.9 °F /  -14.5 °C 5.0 °F /  -15 °C 1015.8 in /  34395 hPa SW 30.6 mph /  49.2 km/h 32.2 mph /  51.8 km/h 94 % 0.0 in /  0 mm
03:31 6.0 °F /  -14.4 °C 5.1 °F /  -14.9 °C 1015.5 in /  34384.8 hPa SW 16.3 mph /  26.2 km/h 24.1 mph /  38.8 km/h 94 % 0.0 in /  0 mm
03:37 6.1 °F /  -14.4 °C 5.2 °F /  -14.9 °C 1015.8 in /  34395 hPa WSW 9.7 mph /  15.6 km/h 25.7 mph /  41.4 km/h 94 % 0.0 in /  0 mm
03:43 6.1 °F /  -14.4 °C 5.2 °F /  -14.9 °C 1015.5 in /  34384.8 hPa SW 22.7 mph /  36.5 km/h 30.6 mph /  49.2 km/h 94 % 0.0 in /  0 mm
03:49 6.1 °F /  -14.4 °C 5.2 °F /  -14.9 °C 1015.5 in /  34384.8 hPa SW 17.7 mph /  28.5 km/h 24.1 mph /  38.8 km/h 94 % 0.0 in /  0 mm
03:55 6.1 °F /  -14.4 °C 5.2 °F /  -14.9 °C 1015.1 in /  34371.3 hPa SSW 9.7 mph /  15.6 km/h 33.8 mph /  54.4 km/h 94 % 0.3 in /  7.62 mm
04:01 6.1 °F /  -14.4 °C 5.2 °F /  -14.9 °C 1015.1 in /  34371.3 hPa SSW 16.3 mph /  26.2 km/h 25.7 mph /  41.4 km/h 94 % 0.3 in /  7.62 mm
04:07 6.2 °F /  -14.3 °C 5.5 °F /  -14.7 °C 1014.8 in /  34361.1 hPa SW 20.9 mph /  33.6 km/h 29.0 mph /  46.7 km/h 95 % 0.3 in /  7.62 mm
04:13 6.2 °F /  -14.3 °C 5.5 °F /  -14.7 °C 1014.8 in /  34361.1 hPa SW 20.9 mph /  33.6 km/h 27.4 mph /  44.1 km/h 95 % 0.3 in /  7.62 mm
04:19 6.2 °F /  -14.3 °C 5.5 °F /  -14.7 °C 1014.8 in /  34361.1 hPa SSW 16.3 mph /  26.2 km/h 24.1 mph /  38.8 km/h 95 % 0.3 in /  7.62 mm
04:25 6.3 °F /  -14.3 °C 5.6 °F /  -14.7 °C 1014.8 in /  34361.1 hPa SW 17.7 mph /  28.5 km/h 33.8 mph /  54.4 km/h 95 % 0.3 in /  7.62 mm
04:31 6.3 °F /  -14.3 °C 5.6 °F /  -14.7 °C 1014.4 in /  34347.6 hPa SW 20.9 mph /  33.6 km/h 27.4 mph /  44.1 km/h 95 % 0.3 in /  7.62 mm
04:37 6.3 °F /  -14.3 °C 5.6 °F /  -14.7 °C 1014.4 in /  34347.6 hPa SSW 14.3 mph /  23 km/h 29.0 mph /  46.7 km/h 95 % 0.5 in /  12.7 mm
04:43 6.3 °F /  -14.3 °C 5.6 °F /  -14.7 °C 1014.4 in /  34347.6 hPa WSW 30.6 mph /  49.2 km/h 35.4 mph /  57 km/h 95 % 0.5 in /  12.7 mm
04:49 6.4 °F /  -14.2 °C 5.7 °F /  -14.6 °C 1014.4 in /  34347.6 hPa SW 17.7 mph /  28.5 km/h 32.2 mph /  51.8 km/h 95 % 0.5 in /  12.7 mm
04:55 6.4 °F /  -14.2 °C 5.7 °F /  -14.6 °C 1014.1 in /  34337.4 hPa SW 11.1 mph /  17.9 km/h 29.0 mph /  46.7 km/h 95 % 0.3 in /  7.62 mm
05:01 6.4 °F /  -14.2 °C 5.7 °F /  -14.6 °C 1014.4 in /  34347.6 hPa SSW 6.4 mph /  10.3 km/h 29.0 mph /  46.7 km/h 95 % 0.3 in /  7.62 mm
05:07 6.4 °F /  -14.2 °C 5.7 °F /  -14.6 °C 1014.1 in /  34337.4 hPa SW 22.7 mph /  36.5 km/h 25.7 mph /  41.4 km/h 95 % 0.3 in /  7.62 mm
05:13 6.4 °F /  -14.2 °C 5.7 °F /  -14.6 °C 1014.1 in /  34337.4 hPa SW 19.5 mph /  31.4 km/h 30.6 mph /  49.2 km/h 95 % 0.3 in /  7.62 mm
05:19 6.4 °F /  -14.2 °C 5.7 °F /  -14.6 °C 1014.1 in /  34337.4 hPa SW 28.8 mph /  46.3 km/h 32.2 mph /  51.8 km/h 95 % 0.5 in /  12.7 mm
05:25 6.4 °F /  -14.2 °C 5.7 °F /  -14.6 °C 1013.8 in /  34327.3 hPa WSW 11.1 mph /  17.9 km/h 29.0 mph /  46.7 km/h 95 % 0.5 in /  12.7 mm
05:31 6.4 °F /  -14.2 °C 5.7 °F /  -14.6 °C 1013.8 in /  34327.3 hPa SW 20.9 mph /  33.6 km/h 24.1 mph /  38.8 km/h 95 % 0.5 in /  12.7 mm
05:37 6.5 °F /  -14.2 °C 5.9 °F /  -14.5 °C 1013.8 in /  34327.3 hPa WSW 16.3 mph /  26.2 km/h 27.4 mph /  44.1 km/h 96 % 0.3 in /  7.62 mm
05:43 6.6 °F /  -14.1 °C 5.9 °F /  -14.5 °C 1013.8 in /  34327.3 hPa SW 19.5 mph /  31.4 km/h 32.2 mph /  51.8 km/h 95 % 0.3 in /  7.62 mm
05:49 6.7 °F /  -14.1 °C 6.0 °F /  -14.4 °C 1013.8 in /  34327.3 hPa WSW 17.7 mph /  28.5 km/h 35.4 mph /  57 km/h 95 % 0.3 in /  7.62 mm
05:55 6.8 °F /  -14 °C 6.1 °F /  -14.4 °C 1013.8 in /  34327.3 hPa SSW 14.3 mph /  23 km/h 29.0 mph /  46.7 km/h 95 % 0.5 in /  12.7 mm
06:01 6.9 °F /  -13.9 °C 6.2 °F /  -14.3 °C 1013.8 in /  34327.3 hPa WSW 27.4 mph /  44.1 km/h 38.6 mph /  62.1 km/h 95 % 0.5 in /  12.7 mm
06:07 7.0 °F /  -13.9 °C 6.1 °F /  -14.4 °C 1013.4 in /  34313.7 hPa WSW 17.7 mph /  28.5 km/h 37.0 mph /  59.5 km/h 94 % 0.5 in /  12.7 mm
06:13 7.1 °F /  -13.8 °C 6.2 °F /  -14.3 °C 1013.4 in /  34313.7 hPa WSW 30.6 mph /  49.2 km/h 45.1 mph /  72.6 km/h 94 % 0.5 in /  12.7 mm
06:19 7.1 °F /  -13.8 °C 6.2 °F /  -14.3 °C 1013.4 in /  34313.7 hPa SW 20.9 mph /  33.6 km/h 35.4 mph /  57 km/h 94 % 0.3 in /  7.62 mm
06:25 7.1 °F /  -13.8 °C 6.4 °F /  -14.2 °C 1013.1 in /  34303.6 hPa WSW 22.7 mph /  36.5 km/h 41.8 mph /  67.3 km/h 95 % 0.3 in /  7.62 mm
06:31 7.1 °F /  -13.8 °C 6.4 °F /  -14.2 °C 1013.1 in /  34303.6 hPa WSW 17.7 mph /  28.5 km/h 29.0 mph /  46.7 km/h 95 % 0.3 in /  7.62 mm
06:37 7.1 °F /  -13.8 °C 6.4 °F /  -14.2 °C 1013.1 in /  34303.6 hPa SSW 22.7 mph /  36.5 km/h 38.6 mph /  62.1 km/h 95 % 0.3 in /  7.62 mm
06:43 7.1 °F /  -13.8 °C 6.4 °F /  -14.2 °C 1013.4 in /  34313.7 hPa WSW 16.3 mph /  26.2 km/h 30.6 mph /  49.2 km/h 95 % 0.3 in /  7.62 mm
06:49 7.1 °F /  -13.8 °C 6.4 °F /  -14.2 °C 1013.4 in /  34313.7 hPa SSW 28.8 mph /  46.3 km/h 30.6 mph /  49.2 km/h 95 % 0.3 in /  7.62 mm
06:55 7.1 °F /  -13.8 °C 6.4 °F /  -14.2 °C 1013.1 in /  34303.6 hPa SW 30.6 mph /  49.2 km/h 32.2 mph /  51.8 km/h 95 % 0.0 in /  0 mm
07:01 7.2 °F /  -13.8 °C 6.5 °F /  -14.2 °C 1013.1 in /  34303.6 hPa SW 20.9 mph /  33.6 km/h 29.0 mph /  46.7 km/h 95 % 0.0 in /  0 mm
07:08 7.2 °F /  -13.8 °C 6.5 °F /  -14.2 °C 1013.1 in /  34303.6 hPa SW 13.0 mph /  20.9 km/h 48.3 mph /  77.7 km/h 95 % 0.0 in /  0 mm
07:14 7.3 °F /  -13.7 °C 6.6 °F /  -14.1 °C 1013.1 in /  34303.6 hPa WSW 14.3 mph /  23 km/h 32.2 mph /  51.8 km/h 95 % 0.0 in /  0 mm
07:20 7.3 °F /  -13.7 °C 6.6 °F /  -14.1 °C 1013.1 in /  34303.6 hPa SW 27.4 mph /  44.1 km/h 40.2 mph /  64.7 km/h 95 % 0.0 in /  0 mm
07:26 7.3 °F /  -13.7 °C 6.6 °F /  -14.1 °C 1013.1 in /  34303.6 hPa WSW 35.2 mph /  56.6 km/h 43.4 mph /  69.8 km/h 95 % 0.0 in /  0 mm
07:32 7.3 °F /  -13.7 °C 6.6 °F /  -14.1 °C 1012.8 in /  34293.4 hPa SW 13.0 mph /  20.9 km/h 46.7 mph /  75.2 km/h 95 % 0.3 in /  7.62 mm
07:38 7.4 °F /  -13.7 °C 6.7 °F /  -14.1 °C 1012.8 in /  34293.4 hPa West 24.1 mph /  38.8 km/h 40.2 mph /  64.7 km/h 95 % 0.3 in /  7.62 mm
07:44 7.4 °F /  -13.7 °C 6.7 °F /  -14.1 °C 1012.8 in /  34293.4 hPa WSW 28.8 mph /  46.3 km/h 49.9 mph /  80.3 km/h 95 % 0.3 in /  7.62 mm
07:50 7.5 °F /  -13.6 °C 6.8 °F /  -14 °C 1012.4 in /  34279.9 hPa SW 22.7 mph /  36.5 km/h 41.8 mph /  67.3 km/h 95 % 0.5 in /  12.7 mm
07:56 7.6 °F /  -13.6 °C 6.9 °F /  -13.9 °C 1012.8 in /  34293.4 hPa West 27.4 mph /  44.1 km/h 37.0 mph /  59.5 km/h 95 % 0.5 in /  12.7 mm
08:02 7.6 °F /  -13.6 °C 6.9 °F /  -13.9 °C 1012.8 in /  34293.4 hPa SW 16.3 mph /  26.2 km/h 51.5 mph /  82.9 km/h 95 % 0.5 in /  12.7 mm
08:08 7.6 °F /  -13.6 °C 6.9 °F /  -13.9 °C 1012.8 in /  34293.4 hPa SW 27.4 mph /  44.1 km/h 37.0 mph /  59.5 km/h 95 % 0.5 in /  12.7 mm
08:14 7.6 °F /  -13.6 °C 6.9 °F /  -13.9 °C 1012.8 in /  34293.4 hPa SW 27.4 mph /  44.1 km/h 32.2 mph /  51.8 km/h 95 % 0.8 in /  20.32 mm
08:20 7.7 °F /  -13.5 °C 6.9 °F /  -13.9 °C 1012.8 in /  34293.4 hPa WSW 24.1 mph /  38.8 km/h 45.1 mph /  72.6 km/h 95 % 0.8 in /  20.32 mm
08:26 7.7 °F /  -13.5 °C 6.9 °F /  -13.9 °C 1012.8 in /  34293.4 hPa WNW 20.9 mph /  33.6 km/h 46.7 mph /  75.2 km/h 95 % 0.8 in /  20.32 mm
08:32 7.7 °F /  -13.5 °C 6.9 °F /  -13.9 °C 1012.8 in /  34293.4 hPa WSW 20.9 mph /  33.6 km/h 29.0 mph /  46.7 km/h 95 % 0.8 in /  20.32 mm
08:38 7.7 °F /  -13.5 °C 6.9 °F /  -13.9 °C 1012.8 in /  34293.4 hPa WSW 25.9 mph /  41.7 km/h 35.4 mph /  57 km/h 95 % 0.8 in /  20.32 mm
08:44 7.7 °F /  -13.5 °C 7.1 °F /  -13.8 °C 1012.8 in /  34293.4 hPa SW 22.7 mph /  36.5 km/h 43.4 mph /  69.8 km/h 96 % 0.8 in /  20.32 mm
08:50 7.7 °F /  -13.5 °C 7.1 °F /  -13.8 °C 1012.8 in /  34293.4 hPa South 16.3 mph /  26.2 km/h 43.4 mph /  69.8 km/h 96 % 0.5 in /  12.7 mm
08:56 7.7 °F /  -13.5 °C 7.1 °F /  -13.8 °C 1012.8 in /  34293.4 hPa WSW 25.9 mph /  41.7 km/h 38.6 mph /  62.1 km/h 96 % 0.8 in /  20.32 mm
09:02 7.8 °F /  -13.4 °C 7.2 °F /  -13.8 °C 1012.8 in /  34293.4 hPa SSW 14.3 mph /  23 km/h 30.6 mph /  49.2 km/h 96 % 1.0 in /  25.4 mm
09:08 7.8 °F /  -13.4 °C 7.2 °F /  -13.8 °C 1012.8 in /  34293.4 hPa SW 19.5 mph /  31.4 km/h 37.0 mph /  59.5 km/h 96 % 1.0 in /  25.4 mm
09:14 7.8 °F /  -13.4 °C 7.2 °F /  -13.8 °C 1012.8 in /  34293.4 hPa SSW 28.8 mph /  46.3 km/h 38.6 mph /  62.1 km/h 96 % 1.0 in /  25.4 mm
09:20 7.9 °F /  -13.4 °C 7.1 °F /  -13.8 °C 1012.8 in /  34293.4 hPa WSW 30.6 mph /  49.2 km/h 38.6 mph /  62.1 km/h 95 % 1.0 in /  25.4 mm
09:26 7.9 °F /  -13.4 °C 7.3 °F /  -13.7 °C 1013.1 in /  34303.6 hPa WSW 25.9 mph /  41.7 km/h 32.2 mph /  51.8 km/h 96 % 1.0 in /  25.4 mm
09:32 7.9 °F /  -13.4 °C 7.3 °F /  -13.7 °C 1013.1 in /  34303.6 hPa WSW 16.3 mph /  26.2 km/h 25.7 mph /  41.4 km/h 96 % 1.0 in /  25.4 mm
09:38 7.9 °F /  -13.4 °C 7.3 °F /  -13.7 °C 1013.1 in /  34303.6 hPa SW 19.5 mph /  31.4 km/h 32.2 mph /  51.8 km/h 96 % 1.0 in /  25.4 mm
09:44 8.0 °F /  -13.3 °C 7.4 °F /  -13.7 °C 1013.1 in /  34303.6 hPa WSW 20.9 mph /  33.6 km/h 25.7 mph /  41.4 km/h 96 % 0.8 in /  20.32 mm
09:50 8.1 °F /  -13.3 °C 7.5 °F /  -13.6 °C 1013.1 in /  34303.6 hPa WSW 32.0 mph /  51.5 km/h 32.2 mph /  51.8 km/h 96 % 0.8 in /  20.32 mm
09:56 8.1 °F /  -13.3 °C 7.5 °F /  -13.6 °C 1013.1 in /  34303.6 hPa West 24.1 mph /  38.8 km/h 29.0 mph /  46.7 km/h 96 % 0.5 in /  12.7 mm
10:02 8.1 °F /  -13.3 °C 7.5 °F /  -13.6 °C 1013.1 in /  34303.6 hPa SW 27.4 mph /  44.1 km/h 32.2 mph /  51.8 km/h 96 % 0.5 in /  12.7 mm
10:08 8.1 °F /  -13.3 °C 7.5 °F /  -13.6 °C 1013.1 in /  34303.6 hPa SW 11.1 mph /  17.9 km/h 37.0 mph /  59.5 km/h 96 % 0.5 in /  12.7 mm
10:14 8.2 °F /  -13.2 °C 7.6 °F /  -13.6 °C 1013.1 in /  34303.6 hPa WSW 17.7 mph /  28.5 km/h 41.8 mph /  67.3 km/h 96 % 0.5 in /  12.7 mm
10:20 8.2 °F /  -13.2 °C 7.6 °F /  -13.6 °C 1013.1 in /  34303.6 hPa WSW 16.3 mph /  26.2 km/h 37.0 mph /  59.5 km/h 96 % 0.5 in /  12.7 mm
10:26 8.2 °F /  -13.2 °C 7.6 °F /  -13.6 °C 1013.1 in /  34303.6 hPa WSW 13.0 mph /  20.9 km/h 25.7 mph /  41.4 km/h 96 % 0.5 in /  12.7 mm
10:32 8.3 °F /  -13.2 °C 7.7 °F /  -13.5 °C 1013.1 in /  34303.6 hPa West 16.3 mph /  26.2 km/h 29.0 mph /  46.7 km/h 96 % 0.3 in /  7.62 mm
10:38 8.3 °F /  -13.2 °C 7.7 °F /  -13.5 °C 1013.1 in /  34303.6 hPa WSW 17.7 mph /  28.5 km/h 43.4 mph /  69.8 km/h 96 % 0.5 in /  12.7 mm
10:44 8.4 °F /  -13.1 °C 7.8 °F /  -13.4 °C 1013.1 in /  34303.6 hPa SW 25.9 mph /  41.7 km/h 25.9 mph /  41.7 km/h 96 % 0.5 in /  12.7 mm
10:50 8.4 °F /  -13.1 °C 7.8 °F /  -13.4 °C 1013.1 in /  34303.6 hPa West 6.4 mph /  10.3 km/h 30.6 mph /  49.2 km/h 96 % 0.5 in /  12.7 mm
10:56 8.4 °F /  -13.1 °C 7.8 °F /  -13.4 °C 1013.1 in /  34303.6 hPa WSW 35.2 mph /  56.6 km/h 35.4 mph /  57 km/h 96 % 0.5 in /  12.7 mm
11:02 8.5 °F /  -13.1 °C 7.9 °F /  -13.4 °C 1013.1 in /  34303.6 hPa SW 6.4 mph /  10.3 km/h 33.8 mph /  54.4 km/h 96 % 0.5 in /  12.7 mm
11:08 8.6 °F /  -13 °C 8.0 °F /  -13.3 °C 1013.1 in /  34303.6 hPa West 20.9 mph /  33.6 km/h 32.2 mph /  51.8 km/h 96 % 0.5 in /  12.7 mm
11:14 8.6 °F /  -13 °C 8.0 °F /  -13.3 °C 1013.1 in /  34303.6 hPa SW 22.7 mph /  36.5 km/h 33.8 mph /  54.4 km/h 96 % 0.5 in /  12.7 mm
11:20 8.7 °F /  -12.9 °C 8.1 °F /  -13.3 °C 1013.4 in /  34313.7 hPa SW 11.1 mph /  17.9 km/h 30.6 mph /  49.2 km/h 96 % 0.5 in /  12.7 mm
11:26 8.7 °F /  -12.9 °C 8.1 °F /  -13.3 °C 1013.1 in /  34303.6 hPa SSW 22.7 mph /  36.5 km/h 38.6 mph /  62.1 km/h 96 % 0.5 in /  12.7 mm
11:32 8.7 °F /  -12.9 °C 8.1 °F /  -13.3 °C 1013.1 in /  34303.6 hPa West 19.5 mph /  31.4 km/h 40.2 mph /  64.7 km/h 96 % 0.8 in /  20.32 mm
11:38 8.7 °F /  -12.9 °C 8.1 °F /  -13.3 °C 1013.1 in /  34303.6 hPa WSW 14.3 mph /  23 km/h 29.0 mph /  46.7 km/h 96 % 0.8 in /  20.32 mm
11:44 8.8 °F /  -12.9 °C 8.2 °F /  -13.2 °C 1013.1 in /  34303.6 hPa WSW 22.7 mph /  36.5 km/h 29.0 mph /  46.7 km/h 96 % 0.8 in /  20.32 mm
11:50 8.7 °F /  -12.9 °C 8.1 °F /  -13.3 °C 1013.1 in /  34303.6 hPa West 17.7 mph /  28.5 km/h 27.4 mph /  44.1 km/h 96 % 1.3 in /  33.02 mm
11:56 8.8 °F /  -12.9 °C 8.2 °F /  -13.2 °C 1012.8 in /  34293.4 hPa WSW 33.8 mph /  54.4 km/h 43.4 mph /  69.8 km/h 96 % 1.3 in /  33.02 mm
12:02 8.8 °F /  -12.9 °C 8.2 °F /  -13.2 °C 1012.8 in /  34293.4 hPa SW 24.1 mph /  38.8 km/h 33.8 mph /  54.4 km/h 96 % 1.3 in /  33.02 mm
12:08 8.8 °F /  -12.9 °C 8.2 °F /  -13.2 °C 1012.8 in /  34293.4 hPa SW 16.3 mph /  26.2 km/h 38.6 mph /  62.1 km/h 96 % 1.5 in /  38.1 mm
12:14 8.8 °F /  -12.9 °C 8.2 °F /  -13.2 °C 1012.8 in /  34293.4 hPa WSW 32.0 mph /  51.5 km/h 32.2 mph /  51.8 km/h 96 % 1.5 in /  38.1 mm
12:20 8.8 °F /  -12.9 °C 8.2 °F /  -13.2 °C 1012.8 in /  34293.4 hPa WSW 27.4 mph /  44.1 km/h 32.2 mph /  51.8 km/h 96 % 1.5 in /  38.1 mm
12:26 8.8 °F /  -12.9 °C 8.2 °F /  -13.2 °C 1012.4 in /  34279.9 hPa WSW 13.0 mph /  20.9 km/h 27.4 mph /  44.1 km/h 96 % 1.5 in /  38.1 mm
12:32 8.9 °F /  -12.8 °C 8.3 °F /  -13.2 °C 1012.4 in /  34279.9 hPa WNW 22.7 mph /  36.5 km/h 25.7 mph /  41.4 km/h 96 % 1.5 in /  38.1 mm
12:38 8.9 °F /  -12.8 °C 8.3 °F /  -13.2 °C 1012.4 in /  34279.9 hPa WSW 24.1 mph /  38.8 km/h 37.0 mph /  59.5 km/h 96 % 1.5 in /  38.1 mm
12:44 8.9 °F /  -12.8 °C 8.3 °F /  -13.2 °C 1012.4 in /  34279.9 hPa SW 16.3 mph /  26.2 km/h 32.2 mph /  51.8 km/h 96 % 1.5 in /  38.1 mm
12:50 9.0 °F /  -12.8 °C 8.4 °F /  -13.1 °C 1012.1 in /  34269.7 hPa SW 22.7 mph /  36.5 km/h 29.0 mph /  46.7 km/h 96 % 1.0 in /  25.4 mm
12:56 9.1 °F /  -12.7 °C 8.5 °F /  -13.1 °C 1012.1 in /  34269.7 hPa WSW 19.5 mph /  31.4 km/h 32.2 mph /  51.8 km/h 96 % 1.3 in /  33.02 mm
13:02 9.1 °F /  -12.7 °C 8.5 °F /  -13.1 °C 1012.1 in /  34269.7 hPa WSW 22.7 mph /  36.5 km/h 37.0 mph /  59.5 km/h 96 % 1.0 in /  25.4 mm
13:08 9.1 °F /  -12.7 °C 8.5 °F /  -13.1 °C 1011.7 in /  34256.2 hPa SSW 14.3 mph /  23 km/h 25.7 mph /  41.4 km/h 96 % 1.0 in /  25.4 mm
13:14 9.2 °F /  -12.7 °C 8.6 °F /  -13 °C 1011.7 in /  34256.2 hPa West 22.7 mph /  36.5 km/h 33.8 mph /  54.4 km/h 96 % 1.0 in /  25.4 mm
13:20 9.2 °F /  -12.7 °C 8.6 °F /  -13 °C 1011.7 in /  34256.2 hPa SW 30.6 mph /  49.2 km/h 38.6 mph /  62.1 km/h 96 % 1.0 in /  25.4 mm
13:26 9.3 °F /  -12.6 °C 8.7 °F /  -12.9 °C 1011.7 in /  34256.2 hPa WSW 14.3 mph /  23 km/h 43.4 mph /  69.8 km/h 96 % 1.0 in /  25.4 mm
13:32 9.3 °F /  -12.6 °C 8.7 °F /  -12.9 °C 1011.4 in /  34246 hPa WSW 28.8 mph /  46.3 km/h 37.0 mph /  59.5 km/h 96 % 0.8 in /  20.32 mm
13:38 9.3 °F /  -12.6 °C 8.5 °F /  -13.1 °C 1011.4 in /  34246 hPa WSW 27.4 mph /  44.1 km/h 40.2 mph /  64.7 km/h 95 % 0.8 in /  20.32 mm
13:44 9.4 °F /  -12.6 °C 8.6 °F /  -13 °C 1011.7 in /  34256.2 hPa WNW 20.9 mph /  33.6 km/h 45.1 mph /  72.6 km/h 95 % 0.8 in /  20.32 mm
13:50 9.4 °F /  -12.6 °C 8.6 °F /  -13 °C 1011.7 in /  34256.2 hPa WSW 20.9 mph /  33.6 km/h 41.8 mph /  67.3 km/h 95 % 0.8 in /  20.32 mm
13:56 9.4 °F /  -12.6 °C 8.8 °F /  -12.9 °C 1011.4 in /  34246 hPa WSW 24.1 mph /  38.8 km/h 35.4 mph /  57 km/h 96 % 0.5 in /  12.7 mm
14:02 9.4 °F /  -12.6 °C 8.6 °F /  -13 °C 1011.4 in /  34246 hPa West 35.2 mph /  56.6 km/h 48.3 mph /  77.7 km/h 95 % 1.0 in /  25.4 mm
14:08 9.4 °F /  -12.6 °C 8.6 °F /  -13 °C 1011.4 in /  34246 hPa WSW 27.4 mph /  44.1 km/h 35.4 mph /  57 km/h 95 % 0.8 in /  20.32 mm
14:14 9.5 °F /  -12.5 °C 8.7 °F /  -12.9 °C 1011.1 in /  34235.8 hPa SW 22.7 mph /  36.5 km/h 25.7 mph /  41.4 km/h 95 % 1.0 in /  25.4 mm
14:20 9.5 °F /  -12.5 °C 8.7 °F /  -12.9 °C 1010.7 in /  34222.3 hPa West 28.8 mph /  46.3 km/h 45.1 mph /  72.6 km/h 95 % 0.8 in /  20.32 mm
14:26 9.6 °F /  -12.4 °C 8.8 °F /  -12.9 °C 1010.7 in /  34222.3 hPa SW 20.9 mph /  33.6 km/h 40.2 mph /  64.7 km/h 95 % 0.8 in /  20.32 mm
14:32 9.6 °F /  -12.4 °C 8.8 °F /  -12.9 °C 1010.7 in /  34222.3 hPa SW 25.9 mph /  41.7 km/h 30.6 mph /  49.2 km/h 95 % 0.8 in /  20.32 mm
14:38 9.7 °F /  -12.4 °C 8.9 °F /  -12.8 °C 1010.7 in /  34222.3 hPa West 9.7 mph /  15.6 km/h 40.2 mph /  64.7 km/h 95 % 0.5 in /  12.7 mm
14:44 9.7 °F /  -12.4 °C 8.9 °F /  -12.8 °C 1010.7 in /  34222.3 hPa West 19.5 mph /  31.4 km/h 37.0 mph /  59.5 km/h 95 % 0.8 in /  20.32 mm
14:50 9.7 °F /  -12.4 °C 8.9 °F /  -12.8 °C 1010.7 in /  34222.3 hPa WSW 20.9 mph /  33.6 km/h 33.8 mph /  54.4 km/h 95 % 0.8 in /  20.32 mm
14:56 9.8 °F /  -12.3 °C 9.0 °F /  -12.8 °C 1010.7 in /  34222.3 hPa West 9.7 mph /  15.6 km/h 30.6 mph /  49.2 km/h 95 % 0.8 in /  20.32 mm
15:02 9.8 °F /  -12.3 °C 9.0 °F /  -12.8 °C 1010.7 in /  34222.3 hPa West 17.7 mph /  28.5 km/h 30.6 mph /  49.2 km/h 95 % 0.5 in /  12.7 mm
15:08 9.8 °F /  -12.3 °C 9.0 °F /  -12.8 °C 1010.7 in /  34222.3 hPa West 13.0 mph /  20.9 km/h 35.4 mph /  57 km/h 95 % 0.5 in /  12.7 mm
15:14 9.8 °F /  -12.3 °C 9.0 °F /  -12.8 °C 1010.4 in /  34212.1 hPa WSW 14.3 mph /  23 km/h 30.6 mph /  49.2 km/h 95 % 0.3 in /  7.62 mm
15:20 9.8 °F /  -12.3 °C 9.0 °F /  -12.8 °C 1010.7 in /  34222.3 hPa West 13.0 mph /  20.9 km/h 29.0 mph /  46.7 km/h 95 % 0.5 in /  12.7 mm
15:26 9.8 °F /  -12.3 °C 9.2 °F /  -12.7 °C 1010.7 in /  34222.3 hPa WSW 17.7 mph /  28.5 km/h 30.6 mph /  49.2 km/h 96 % 0.5 in /  12.7 mm
15:32 9.8 °F /  -12.3 °C 9.2 °F /  -12.7 °C 1010.7 in /  34222.3 hPa WSW 14.3 mph /  23 km/h 35.4 mph /  57 km/h 96 % 0.5 in /  12.7 mm
15:38 9.8 °F /  -12.3 °C 9.2 °F /  -12.7 °C 1010.4 in /  34212.1 hPa WSW 22.7 mph /  36.5 km/h 32.2 mph /  51.8 km/h 96 % 0.5 in /  12.7 mm
15:44 9.8 °F /  -12.3 °C 9.2 °F /  -12.7 °C 1010.4 in /  34212.1 hPa WSW 14.3 mph /  23 km/h 40.2 mph /  64.7 km/h 96 % 0.3 in /  7.62 mm
15:50 9.8 °F /  -12.3 °C 9.2 °F /  -12.7 °C 1010.4 in /  34212.1 hPa SW 22.7 mph /  36.5 km/h 45.1 mph /  72.6 km/h 96 % 0.3 in /  7.62 mm
15:56 9.8 °F /  -12.3 °C 9.2 °F /  -12.7 °C 1010.4 in /  34212.1 hPa West 16.3 mph /  26.2 km/h 35.4 mph /  57 km/h 96 % 0.5 in /  12.7 mm
16:02 9.8 °F /  -12.3 °C 9.2 °F /  -12.7 °C 1010.4 in /  34212.1 hPa WSW 16.3 mph /  26.2 km/h 22.5 mph /  36.2 km/h 96 % 0.5 in /  12.7 mm
16:08 9.9 °F /  -12.3 °C 9.3 °F /  -12.6 °C 1010.0 in /  34198.6 hPa WSW 25.9 mph /  41.7 km/h 38.6 mph /  62.1 km/h 96 % 0.5 in /  12.7 mm
16:14 9.9 °F /  -12.3 °C 9.3 °F /  -12.6 °C 1010.4 in /  34212.1 hPa SW 33.8 mph /  54.4 km/h 40.2 mph /  64.7 km/h 96 % 0.5 in /  12.7 mm
16:26 9.9 °F /  -12.3 °C 9.3 °F /  -12.6 °C 1010.0 in /  34198.6 hPa WSW 30.6 mph /  49.2 km/h 37.0 mph /  59.5 km/h 96 % 0.5 in /  12.7 mm
16:32 9.9 °F /  -12.3 °C 9.3 °F /  -12.6 °C 1010.4 in /  34212.1 hPa West 14.3 mph /  23 km/h 33.8 mph /  54.4 km/h 96 % 0.5 in /  12.7 mm
16:38 9.9 °F /  -12.3 °C 9.3 °F /  -12.6 °C 1010.4 in /  34212.1 hPa SW 16.3 mph /  26.2 km/h 32.2 mph /  51.8 km/h 96 % 0.5 in /  12.7 mm
16:44 9.9 °F /  -12.3 °C 9.3 °F /  -12.6 °C 1010.4 in /  34212.1 hPa WSW 16.3 mph /  26.2 km/h 37.0 mph /  59.5 km/h 96 % 0.5 in /  12.7 mm
16:51 9.9 °F /  -12.3 °C 9.3 °F /  -12.6 °C 1010.4 in /  34212.1 hPa WSW 19.5 mph /  31.4 km/h 30.6 mph /  49.2 km/h 96 % 0.5 in /  12.7 mm
16:56 10.0 °F /  -12.2 °C 9.4 °F /  -12.6 °C 1010.4 in /  34212.1 hPa WSW 20.9 mph /  33.6 km/h 43.4 mph /  69.8 km/h 96 % 0.5 in /  12.7 mm
17:02 10.1 °F /  -12.2 °C 9.5 °F /  -12.5 °C 1010.4 in /  34212.1 hPa WSW 17.7 mph /  28.5 km/h 33.8 mph /  54.4 km/h 96 % 0.5 in /  12.7 mm
17:08 10.1 °F /  -12.2 °C 9.5 °F /  -12.5 °C 1010.4 in /  34212.1 hPa WSW 24.1 mph /  38.8 km/h 35.4 mph /  57 km/h 96 % 0.5 in /  12.7 mm
17:14 10.1 °F /  -12.2 °C 9.5 °F /  -12.5 °C 1010.4 in /  34212.1 hPa WSW 22.7 mph /  36.5 km/h 33.8 mph /  54.4 km/h 96 % 0.5 in /  12.7 mm
17:21 10.1 °F /  -12.2 °C 9.5 °F /  -12.5 °C 1010.4 in /  34212.1 hPa SW 17.7 mph /  28.5 km/h 38.6 mph /  62.1 km/h 96 % 0.3 in /  7.62 mm
17:27 10.1 °F /  -12.2 °C 9.5 °F /  -12.5 °C 1010.4 in /  34212.1 hPa WSW 25.9 mph /  41.7 km/h 38.6 mph /  62.1 km/h 96 % 0.3 in /  7.62 mm
17:33 10.2 °F /  -12.1 °C 9.6 °F /  -12.4 °C 1010.4 in /  34212.1 hPa West 16.3 mph /  26.2 km/h 24.1 mph /  38.8 km/h 96 % 0.5 in /  12.7 mm
17:39 10.2 °F /  -12.1 °C 9.6 °F /  -12.4 °C 1010.0 in /  34198.6 hPa SW 17.7 mph /  28.5 km/h 25.7 mph /  41.4 km/h 96 % 0.5 in /  12.7 mm
17:45 10.2 °F /  -12.1 °C 9.6 °F /  -12.4 °C 1010.0 in /  34198.6 hPa WSW 20.9 mph /  33.6 km/h 30.6 mph /  49.2 km/h 96 % 0.5 in /  12.7 mm
17:51 10.2 °F /  -12.1 °C 9.6 °F /  -12.4 °C 1010.0 in /  34198.6 hPa West 19.5 mph /  31.4 km/h 33.8 mph /  54.4 km/h 96 % 0.5 in /  12.7 mm
17:57 10.2 °F /  -12.1 °C 9.6 °F /  -12.4 °C 1010.0 in /  34198.6 hPa WSW 16.3 mph /  26.2 km/h 29.0 mph /  46.7 km/h 96 % 0.3 in /  7.62 mm
18:03 10.2 °F /  -12.1 °C 9.6 °F /  -12.4 °C 1010.0 in /  34198.6 hPa WSW 16.3 mph /  26.2 km/h 24.1 mph /  38.8 km/h 96 % 0.5 in /  12.7 mm
18:09 10.2 °F /  -12.1 °C 9.6 °F /  -12.4 °C 1010.0 in /  34198.6 hPa WSW 30.6 mph /  49.2 km/h 33.8 mph /  54.4 km/h 96 % 0.5 in /  12.7 mm
18:15 10.2 °F /  -12.1 °C 9.6 °F /  -12.4 °C 1010.4 in /  34212.1 hPa WSW 13.0 mph /  20.9 km/h 22.5 mph /  36.2 km/h 96 % 0.5 in /  12.7 mm
18:21 10.2 °F /  -12.1 °C 9.6 °F /  -12.4 °C 1010.0 in /  34198.6 hPa WSW 28.8 mph /  46.3 km/h 32.2 mph /  51.8 km/h 96 % 0.5 in /  12.7 mm
18:27 10.3 °F /  -12.1 °C 9.7 °F /  -12.4 °C 1010.0 in /  34198.6 hPa SW 19.5 mph /  31.4 km/h 27.4 mph /  44.1 km/h 96 % 0.5 in /  12.7 mm
18:33 10.2 °F /  -12.1 °C 9.6 °F /  -12.4 °C 1010.0 in /  34198.6 hPa WSW 20.9 mph /  33.6 km/h 22.5 mph /  36.2 km/h 96 % 0.5 in /  12.7 mm
18:39 10.3 °F /  -12.1 °C 9.7 °F /  -12.4 °C 1010.0 in /  34198.6 hPa West 11.1 mph /  17.9 km/h 32.2 mph /  51.8 km/h 96 % 0.5 in /  12.7 mm
18:45 10.3 °F /  -12.1 °C 9.7 °F /  -12.4 °C 1010.0 in /  34198.6 hPa SW 22.7 mph /  36.5 km/h 32.2 mph /  51.8 km/h 96 % 0.5 in /  12.7 mm
18:51 10.3 °F /  -12.1 °C 9.8 °F /  -12.3 °C 1010.0 in /  34198.6 hPa SW 25.9 mph /  41.7 km/h 40.2 mph /  64.7 km/h 97 % 0.5 in /  12.7 mm
18:57 10.3 °F /  -12.1 °C 9.7 °F /  -12.4 °C 1010.0 in /  34198.6 hPa WSW 20.9 mph /  33.6 km/h 30.6 mph /  49.2 km/h 96 % 0.5 in /  12.7 mm
19:03 10.3 °F /  -12.1 °C 9.8 °F /  -12.3 °C 1010.0 in /  34198.6 hPa SW 27.4 mph /  44.1 km/h 33.8 mph /  54.4 km/h 97 % 0.5 in /  12.7 mm
19:09 10.3 °F /  -12.1 °C 9.8 °F /  -12.3 °C 1010.0 in /  34198.6 hPa WSW 32.0 mph /  51.5 km/h 32.2 mph /  51.8 km/h 97 % 0.5 in /  12.7 mm
19:15 10.3 °F /  -12.1 °C 9.8 °F /  -12.3 °C 1010.0 in /  34198.6 hPa WSW 25.9 mph /  41.7 km/h 40.2 mph /  64.7 km/h 97 % 0.5 in /  12.7 mm
19:21 10.3 °F /  -12.1 °C 9.8 °F /  -12.3 °C 1010.0 in /  34198.6 hPa WSW 14.3 mph /  23 km/h 27.4 mph /  44.1 km/h 97 % 0.5 in /  12.7 mm
19:27 10.3 °F /  -12.1 °C 9.8 °F /  -12.3 °C 1010.0 in /  34198.6 hPa WSW 19.5 mph /  31.4 km/h 30.6 mph /  49.2 km/h 97 % 0.5 in /  12.7 mm
19:33 10.3 °F /  -12.1 °C 9.8 °F /  -12.3 °C 1010.0 in /  34198.6 hPa West 27.4 mph /  44.1 km/h 32.2 mph /  51.8 km/h 97 % 0.5 in /  12.7 mm
19:39 10.3 °F /  -12.1 °C 9.8 °F /  -12.3 °C 1010.0 in /  34198.6 hPa West 22.7 mph /  36.5 km/h 27.4 mph /  44.1 km/h 97 % 0.5 in /  12.7 mm
19:45 10.4 °F /  -12 °C 9.9 °F /  -12.3 °C 1010.4 in /  34212.1 hPa West 20.9 mph /  33.6 km/h 37.0 mph /  59.5 km/h 97 % 0.5 in /  12.7 mm
19:51 10.4 °F /  -12 °C 9.8 °F /  -12.3 °C 1010.4 in /  34212.1 hPa SW 28.8 mph /  46.3 km/h 38.6 mph /  62.1 km/h 96 % 0.5 in /  12.7 mm
19:57 10.6 °F /  -11.9 °C 10.0 °F /  -12.2 °C 1010.4 in /  34212.1 hPa WSW 19.5 mph /  31.4 km/h 35.4 mph /  57 km/h 96 % 0.5 in /  12.7 mm
20:03 10.6 °F /  -11.9 °C 9.8 °F /  -12.3 °C 1010.4 in /  34212.1 hPa SW 27.4 mph /  44.1 km/h 33.8 mph /  54.4 km/h 95 % 0.5 in /  12.7 mm
20:09 10.6 °F /  -11.9 °C 9.7 °F /  -12.4 °C 1010.4 in /  34212.1 hPa WSW 27.4 mph /  44.1 km/h 38.6 mph /  62.1 km/h 94 % 0.5 in /  12.7 mm
20:15 10.6 °F /  -11.9 °C 9.5 °F /  -12.5 °C 1010.4 in /  34212.1 hPa WSW 22.7 mph /  36.5 km/h 30.6 mph /  49.2 km/h 93 % 0.5 in /  12.7 mm
20:21 10.6 °F /  -11.9 °C 9.5 °F /  -12.5 °C 1010.4 in /  34212.1 hPa WSW 17.7 mph /  28.5 km/h 32.2 mph /  51.8 km/h 93 % 0.5 in /  12.7 mm
20:27 10.7 °F /  -11.8 °C 9.5 °F /  -12.5 °C 1010.4 in /  34212.1 hPa WSW 14.3 mph /  23 km/h 45.1 mph /  72.6 km/h 92 % 0.5 in /  12.7 mm
20:33 10.7 °F /  -11.8 °C 9.3 °F /  -12.6 °C 1010.4 in /  34212.1 hPa West 19.5 mph /  31.4 km/h 33.8 mph /  54.4 km/h 91 % 0.5 in /  12.7 mm
20:39 10.7 °F /  -11.8 °C 9.3 °F /  -12.6 °C 1010.7 in /  34222.3 hPa West 20.9 mph /  33.6 km/h 35.4 mph /  57 km/h 91 % 0.3 in /  7.62 mm
20:45 10.7 °F /  -11.8 °C 9.3 °F /  -12.6 °C 1010.7 in /  34222.3 hPa West 11.1 mph /  17.9 km/h 30.6 mph /  49.2 km/h 91 % 0.3 in /  7.62 mm
20:51 10.7 °F /  -11.8 °C 9.1 °F /  -12.7 °C 1010.7 in /  34222.3 hPa West 28.8 mph /  46.3 km/h 35.4 mph /  57 km/h 90 % 0.3 in /  7.62 mm
20:57 10.7 °F /  -11.8 °C 9.1 °F /  -12.7 °C 1010.7 in /  34222.3 hPa WSW 19.5 mph /  31.4 km/h 30.6 mph /  49.2 km/h 90 % 0.3 in /  7.62 mm
21:03 10.6 °F /  -11.9 °C 9.0 °F /  -12.8 °C 1010.7 in /  34222.3 hPa West 20.9 mph /  33.6 km/h 35.4 mph /  57 km/h 90 % 0.3 in /  7.62 mm
21:09 10.5 °F /  -11.9 °C 8.8 °F /  -12.9 °C 1011.1 in /  34235.8 hPa WSW 22.7 mph /  36.5 km/h 37.0 mph /  59.5 km/h 89 % 0.0 in /  0 mm
21:15 10.4 °F /  -12 °C 8.5 °F /  -13.1 °C 1011.1 in /  34235.8 hPa West 22.7 mph /  36.5 km/h 37.0 mph /  59.5 km/h 88 % 0.0 in /  0 mm
21:21 10.4 °F /  -12 °C 8.3 °F /  -13.2 °C 1011.4 in /  34246 hPa West 28.8 mph /  46.3 km/h 33.8 mph /  54.4 km/h 87 % 0.0 in /  0 mm
21:27 10.3 °F /  -12.1 °C 8.2 °F /  -13.2 °C 1011.4 in /  34246 hPa West 11.1 mph /  17.9 km/h 33.8 mph /  54.4 km/h 87 % 0.0 in /  0 mm
21:33 10.2 °F /  -12.1 °C 8.1 °F /  -13.3 °C 1011.4 in /  34246 hPa West 9.7 mph /  15.6 km/h 20.9 mph /  33.6 km/h 87 % 0.0 in /  0 mm
21:39 10.2 °F /  -12.1 °C 8.1 °F /  -13.3 °C 1011.7 in /  34256.2 hPa WSW 27.4 mph /  44.1 km/h 30.6 mph /  49.2 km/h 87 % 0.0 in /  0 mm
21:45 10.1 °F /  -12.2 °C 8.0 °F /  -13.3 °C 1011.7 in /  34256.2 hPa West 13.0 mph /  20.9 km/h 20.9 mph /  33.6 km/h 87 % 0.0 in /  0 mm
21:51 9.9 °F /  -12.3 °C 8.0 °F /  -13.3 °C 1011.7 in /  34256.2 hPa West 11.1 mph /  17.9 km/h 22.5 mph /  36.2 km/h 88 % 0.0 in /  0 mm
21:57 9.8 °F /  -12.3 °C 7.9 °F /  -13.4 °C 1011.7 in /  34256.2 hPa WSW 19.5 mph /  31.4 km/h 27.4 mph /  44.1 km/h 88 % 0.0 in /  0 mm
22:03 9.7 °F /  -12.4 °C 8.0 °F /  -13.3 °C 1011.7 in /  34256.2 hPa WSW 16.3 mph /  26.2 km/h 19.3 mph /  31.1 km/h 89 % 0.0 in /  0 mm
22:09 9.6 °F /  -12.4 °C 8.0 °F /  -13.3 °C 1011.7 in /  34256.2 hPa West 14.3 mph /  23 km/h 22.5 mph /  36.2 km/h 90 % 0.0 in /  0 mm
22:15 9.6 °F /  -12.4 °C 8.0 °F /  -13.3 °C 1011.7 in /  34256.2 hPa WSW 19.5 mph /  31.4 km/h 19.5 mph /  31.4 km/h 90 % 0.0 in /  0 mm
22:21 9.6 °F /  -12.4 °C 7.9 °F /  -13.4 °C 1011.7 in /  34256.2 hPa West 9.7 mph /  15.6 km/h 20.9 mph /  33.6 km/h 89 % 0.0 in /  0 mm
22:27 9.5 °F /  -12.5 °C 7.8 °F /  -13.4 °C 1011.7 in /  34256.2 hPa WSW 20.9 mph /  33.6 km/h 20.9 mph /  33.6 km/h 89 % 0.0 in /  0 mm
22:33 9.6 °F /  -12.4 °C 7.9 °F /  -13.4 °C 1012.1 in /  34269.7 hPa West 17.7 mph /  28.5 km/h 19.3 mph /  31.1 km/h 89 % 0.0 in /  0 mm
22:39 9.6 °F /  -12.4 °C 7.9 °F /  -13.4 °C 1012.1 in /  34269.7 hPa WSW 9.7 mph /  15.6 km/h 20.9 mph /  33.6 km/h 89 % 0.0 in /  0 mm
22:45 9.6 °F /  -12.4 °C 7.9 °F /  -13.4 °C 1012.1 in /  34269.7 hPa West 14.3 mph /  23 km/h 17.7 mph /  28.5 km/h 89 % 0.0 in /  0 mm
22:51 9.5 °F /  -12.5 °C 7.8 °F /  -13.4 °C 1012.1 in /  34269.7 hPa West 13.0 mph /  20.9 km/h 22.5 mph /  36.2 km/h 89 % 0.0 in /  0 mm
22:57 9.5 °F /  -12.5 °C 7.6 °F /  -13.6 °C 1012.1 in /  34269.7 hPa West 17.7 mph /  28.5 km/h 29.0 mph /  46.7 km/h 88 % 0.0 in /  0 mm
23:03 9.5 °F /  -12.5 °C 7.6 °F /  -13.6 °C 1012.1 in /  34269.7 hPa WSW 24.1 mph /  38.8 km/h 27.4 mph /  44.1 km/h 88 % 0.0 in /  0 mm
23:09 9.6 °F /  -12.4 °C 7.5 °F /  -13.6 °C 1012.1 in /  34269.7 hPa West 16.3 mph /  26.2 km/h 25.7 mph /  41.4 km/h 87 % 0.0 in /  0 mm
23:15 9.6 °F /  -12.4 °C 7.4 °F /  -13.7 °C 1012.4 in /  34279.9 hPa West 27.4 mph /  44.1 km/h 35.4 mph /  57 km/h 86 % 0.0 in /  0 mm
23:21 9.5 °F /  -12.5 °C 7.1 °F /  -13.8 °C 1012.4 in /  34279.9 hPa WNW 25.9 mph /  41.7 km/h 33.8 mph /  54.4 km/h 85 % 0.0 in /  0 mm
23:27 9.4 °F /  -12.6 °C 7.0 °F /  -13.9 °C 1012.4 in /  34279.9 hPa WNW 11.1 mph /  17.9 km/h 22.5 mph /  36.2 km/h 85 % 0.0 in /  0 mm
23:33 9.3 °F /  -12.6 °C 6.9 °F /  -13.9 °C 1012.4 in /  34279.9 hPa West 9.7 mph /  15.6 km/h 17.7 mph /  28.5 km/h 85 % 0.0 in /  0 mm
23:39 9.3 °F /  -12.6 °C 7.1 °F /  -13.8 °C 1012.4 in /  34279.9 hPa West 6.4 mph /  10.3 km/h 14.5 mph /  23.3 km/h 86 % 0.0 in /  0 mm
23:45 9.2 °F /  -12.7 °C 7.0 °F /  -13.9 °C 1012.4 in /  34279.9 hPa WSW 16.3 mph /  26.2 km/h 17.7 mph /  28.5 km/h 86 % 0.0 in /  0 mm
23:51 9.2 °F /  -12.7 °C 7.0 °F /  -13.9 °C 1012.8 in /  34293.4 hPa West 19.5 mph /  31.4 km/h 24.1 mph /  38.8 km/h 86 % 0.0 in /  0 mm
23:57 9.1 °F /  -12.7 °C 6.9 °F /  -13.9 °C 1012.8 in /  34293.4 hPa West 19.5 mph /  31.4 km/h 25.7 mph /  41.4 km/h 86 % 0.0 in /  0 mm
Meteo18
Compliments of Weather Underground - 4 mb

Script developed by  Jim McMurry - jmcmurry@mwt.net Adapted for the template by  Wim van der Kuil - Leuven-Template.eu

You find our weather info also at:

European Weather Network

Weather Underground

Equipment we use:

Weather-station
Davis Vue

Weather-program
Meteobridge

Weather-server
Raspberry PI 2 B+

Provider
1 and 1

Davis Vue

Meteobridge

Raspberry PI 2 B+

1 and 1